sensor_id;sensor_type;location;lat;lon;timestamp;pressure;altitude;pressure_sealevel;temperature;humidity
20013;BME280;10167;42.852;23.042;2023-02-12T00:01:52;95857.03;;;-0.05;96.05
20013;BME280;10167;42.852;23.042;2023-02-12T00:04:21;95866.72;;;0.03;95.86
20013;BME280;10167;42.852;23.042;2023-02-12T00:06:50;95869.38;;;-0.07;96.60
20013;BME280;10167;42.852;23.042;2023-02-12T00:09:19;95870.50;;;-0.10;97.96
20013;BME280;10167;42.852;23.042;2023-02-12T00:11:51;95865.28;;;-0.10;98.18
20013;BME280;10167;42.852;23.042;2023-02-12T00:14:20;95868.72;;;-0.09;98.31
20013;BME280;10167;42.852;23.042;2023-02-12T00:16:50;95871.56;;;-0.03;97.72
20013;BME280;10167;42.852;23.042;2023-02-12T00:19:18;95874.06;;;-0.11;98.04
20013;BME280;10167;42.852;23.042;2023-02-12T00:21:49;95869.53;;;-0.09;97.16
20013;BME280;10167;42.852;23.042;2023-02-12T00:24:18;95873.56;;;-0.14;96.17
20013;BME280;10167;42.852;23.042;2023-02-12T00:26:48;95867.66;;;-0.16;94.72
20013;BME280;10167;42.852;23.042;2023-02-12T00:29:19;95863.84;;;-0.22;93.30
20013;BME280;10167;42.852;23.042;2023-02-12T00:31:48;95852.19;;;-0.35;94.77
20013;BME280;10167;42.852;23.042;2023-02-12T00:34:17;95861.38;;;-0.41;97.28
20013;BME280;10167;42.852;23.042;2023-02-12T00:36:47;95854.66;;;-0.44;97.95
20013;BME280;10167;42.852;23.042;2023-02-12T00:39:16;95851.78;;;-0.41;96.45
20013;BME280;10167;42.852;23.042;2023-02-12T00:41:46;95844.19;;;-0.52;97.69
20013;BME280;10167;42.852;23.042;2023-02-12T00:44:16;95846.50;;;-0.49;100.00
20013;BME280;10167;42.852;23.042;2023-02-12T00:46:47;95840.91;;;-0.54;100.00
20013;BME280;10167;42.852;23.042;2023-02-12T00:49:16;95843.94;;;-0.86;100.00
20013;BME280;10167;42.852;23.042;2023-02-12T00:51:47;95843.41;;;-0.62;100.00
20013;BME280;10167;42.852;23.042;2023-02-12T00:54:17;95846.03;;;-0.62;100.00
20013;BME280;10167;42.852;23.042;2023-02-12T00:56:47;95843.81;;;-0.57;100.00
20013;BME280;10167;42.852;23.042;2023-02-12T00:59:16;95847.53;;;-0.59;100.00
20013;BME280;10167;42.852;23.042;2023-02-12T01:01:47;95856.69;;;-0.65;100.00
20013;BME280;10167;42.852;23.042;2023-02-12T01:04:16;95851.00;;;-0.68;100.00
20013;BME280;10167;42.852;23.042;2023-02-12T01:06:46;95844.56;;;-0.74;100.00
20013;BME280;10167;42.852;23.042;2023-02-12T01:09:16;95838.81;;;-0.78;100.00
20013;BME280;10167;42.852;23.042;2023-02-12T01:11:47;95839.78;;;-0.79;100.00
20013;BME280;10167;42.852;23.042;2023-02-12T01:14:16;95844.34;;;-0.81;100.00
20013;BME280;10167;42.852;23.042;2023-02-12T01:16:47;95845.53;;;-0.75;100.00
20013;BME280;10167;42.852;23.042;2023-02-12T01:19:18;95841.75;;;-0.81;100.00
20013;BME280;10167;42.852;23.042;2023-02-12T01:21:47;95839.69;;;-0.87;100.00
20013;BME280;10167;42.852;23.042;2023-02-12T01:24:16;95848.91;;;-0.92;100.00
20013;BME280;10167;42.852;23.042;2023-02-12T01:26:45;95845.75;;;-0.96;100.00
20013;BME280;10167;42.852;23.042;2023-02-12T01:29:16;95831.13;;;-0.97;100.00
20013;BME280;10167;42.852;23.042;2023-02-12T01:31:47;95824.03;;;-1.04;100.00
20013;BME280;10167;42.852;23.042;2023-02-12T01:34:16;95825.13;;;-1.07;100.00
20013;BME280;10167;42.852;23.042;2023-02-12T01:36:45;95808.31;;;-1.03;100.00
20013;BME280;10167;42.852;23.042;2023-02-12T01:39:14;95801.19;;;-1.11;100.00
20013;BME280;10167;42.852;23.042;2023-02-12T01:41:44;95801.66;;;-1.15;100.00
20013;BME280;10167;42.852;23.042;2023-02-12T01:44:16;95804.66;;;-1.20;100.00
20013;BME280;10167;42.852;23.042;2023-02-12T01:46:49;95806.56;;;-1.22;100.00
20013;BME280;10167;42.852;23.042;2023-02-12T01:49:22;95812.91;;;-1.24;100.00
20013;BME280;10167;42.852;23.042;2023-02-12T01:51:55;95811.91;;;-1.23;100.00
20013;BME280;10167;42.852;23.042;2023-02-12T01:54:28;95814.09;;;-1.19;100.00
20013;BME280;10167;42.852;23.042;2023-02-12T01:56:59;95817.94;;;-1.23;100.00
20013;BME280;10167;42.852;23.042;2023-02-12T01:59:30;95814.69;;;-1.25;100.00
20013;BME280;10167;42.852;23.042;2023-02-12T02:02:03;95814.25;;;-1.20;100.00
20013;BME280;10167;42.852;23.042;2023-02-12T02:04:37;95808.19;;;-1.11;100.00
20013;BME280;10167;42.852;23.042;2023-02-12T02:07:10;95799.00;;;-1.05;100.00
20013;BME280;10167;42.852;23.042;2023-02-12T02:09:40;95799.06;;;-1.15;100.00
20013;BME280;10167;42.852;23.042;2023-02-12T02:12:09;95801.47;;;-1.04;100.00
20013;BME280;10167;42.852;23.042;2023-02-12T02:14:58;95790.38;;;-1.06;100.00
20013;BME280;10167;42.852;23.042;2023-02-12T02:17:45;95789.66;;;-0.98;100.00
20013;BME280;10167;42.852;23.042;2023-02-12T02:20:48;95782.94;;;-0.91;100.00
20013;BME280;10167;42.852;23.042;2023-02-12T02:23:38;95796.56;;;-0.80;100.00
20013;BME280;10167;42.852;23.042;2023-02-12T02:26:41;95792.94;;;-0.69;100.00
20013;BME280;10167;42.852;23.042;2023-02-12T02:29:40;95783.38;;;-0.68;100.00
20013;BME280;10167;42.852;23.042;2023-02-12T02:32:17;95779.28;;;-0.71;100.00
20013;BME280;10167;42.852;23.042;2023-02-12T02:34:55;95777.84;;;-0.65;100.00
20013;BME280;10167;42.852;23.042;2023-02-12T02:37:31;95782.16;;;-0.56;100.00
20013;BME280;10167;42.852;23.042;2023-02-12T02:40:08;95779.22;;;-0.61;100.00
20013;BME280;10167;42.852;23.042;2023-02-12T02:42:43;95782.63;;;-0.61;100.00
20013;BME280;10167;42.852;23.042;2023-02-12T02:45:17;95788.50;;;-0.59;100.00
20013;BME280;10167;42.852;23.042;2023-02-12T02:47:52;95787.44;;;-0.66;100.00
20013;BME280;10167;42.852;23.042;2023-02-12T02:50:25;95789.53;;;-0.69;100.00
20013;BME280;10167;42.852;23.042;2023-02-12T02:52:58;95796.72;;;-0.63;100.00
20013;BME280;10167;42.852;23.042;2023-02-12T02:55:34;95790.72;;;-0.64;100.00
20013;BME280;10167;42.852;23.042;2023-02-12T02:58:10;95778.25;;;-0.60;100.00
20013;BME280;10167;42.852;23.042;2023-02-12T03:00:43;95789.69;;;-0.53;100.00
20013;BME280;10167;42.852;23.042;2023-02-12T03:03:18;95797.00;;;-0.57;100.00
20013;BME280;10167;42.852;23.042;2023-02-12T03:05:54;95791.53;;;-0.63;100.00
20013;BME280;10167;42.852;23.042;2023-02-12T03:08:27;95792.94;;;-0.69;100.00
20013;BME280;10167;42.852;23.042;2023-02-12T03:11:04;95794.72;;;-0.69;100.00
20013;BME280;10167;42.852;23.042;2023-02-12T03:13:38;95789.81;;;-0.73;100.00
20013;BME280;10167;42.852;23.042;2023-02-12T03:16:13;95787.28;;;-0.64;100.00
20013;BME280;10167;42.852;23.042;2023-02-12T03:18:52;95777.50;;;-0.70;100.00
20013;BME280;10167;42.852;23.042;2023-02-12T03:21:27;95785.09;;;-0.59;100.00
20013;BME280;10167;42.852;23.042;2023-02-12T03:24:01;95781.53;;;-0.58;100.00
20013;BME280;10167;42.852;23.042;2023-02-12T03:26:39;95775.28;;;-0.48;100.00
20013;BME280;10167;42.852;23.042;2023-02-12T03:29:11;95784.41;;;-0.44;100.00
20013;BME280;10167;42.852;23.042;2023-02-12T03:31:50;95783.03;;;-0.38;100.00
20013;BME280;10167;42.852;23.042;2023-02-12T03:34:31;95771.38;;;-0.34;100.00
20013;BME280;10167;42.852;23.042;2023-02-12T03:37:06;95774.00;;;-0.44;100.00
20013;BME280;10167;42.852;23.042;2023-02-12T03:39:47;95778.63;;;-0.38;100.00
20013;BME280;10167;42.852;23.042;2023-02-12T03:42:26;95772.34;;;-0.35;100.00
20013;BME280;10167;42.852;23.042;2023-02-12T03:45:02;95778.25;;;-0.43;100.00
20013;BME280;10167;42.852;23.042;2023-02-12T03:47:39;95778.25;;;-0.43;100.00
20013;BME280;10167;42.852;23.042;2023-02-12T03:50:16;95766.88;;;-0.42;100.00
20013;BME280;10167;42.852;23.042;2023-02-12T03:52:49;95763.09;;;-0.29;100.00
20013;BME280;10167;42.852;23.042;2023-02-12T03:55:18;95754.94;;;-0.34;100.00
20013;BME280;10167;42.852;23.042;2023-02-12T03:57:51;95763.47;;;-0.24;100.00
20013;BME280;10167;42.852;23.042;2023-02-12T04:00:25;95763.09;;;-0.29;100.00
20013;BME280;10167;42.852;23.042;2023-02-12T04:02:54;95760.56;;;-0.21;100.00
20013;BME280;10167;42.852;23.042;2023-02-12T04:05:26;95752.47;;;-0.18;100.00
20013;BME280;10167;42.852;23.042;2023-02-12T04:07:57;95756.25;;;-0.13;100.00
20013;BME280;10167;42.852;23.042;2023-02-12T04:10:29;95756.69;;;0.00;100.00
20013;BME280;10167;42.852;23.042;2023-02-12T04:13:09;95766.94;;;0.02;100.00
20013;BME280;10167;42.852;23.042;2023-02-12T04:15:54;95778.25;;;-0.07;100.00
20013;BME280;10167;42.852;23.042;2023-02-12T04:18:30;95781.97;;;0.08;99.18
20013;BME280;10167;42.852;23.042;2023-02-12T04:21:07;95785.75;;;0.14;97.11
20013;BME280;10167;42.852;23.042;2023-02-12T04:23:47;95795.91;;;-0.01;98.48
20013;BME280;10167;42.852;23.042;2023-02-12T04:26:22;95796.19;;;-0.04;98.26
20013;BME280;10167;42.852;23.042;2023-02-12T04:28:59;95798.81;;;-0.04;99.18
20013;BME280;10167;42.852;23.042;2023-02-12T04:31:32;95804.38;;;0.01;100.00
20013;BME280;10167;42.852;23.042;2023-02-12T04:34:10;95804.88;;;0.05;99.26
20013;BME280;10167;42.852;23.042;2023-02-12T04:36:45;95808.03;;;0.08;99.57
20013;BME280;10167;42.852;23.042;2023-02-12T04:39:20;95816.81;;;0.07;99.21
20013;BME280;10167;42.852;23.042;2023-02-12T04:41:51;95821.72;;;0.10;99.61
20013;BME280;10167;42.852;23.042;2023-02-12T04:44:22;95831.16;;;0.11;100.00
20013;BME280;10167;42.852;23.042;2023-02-12T04:46:52;95829.88;;;0.15;99.88
20013;BME280;10167;42.852;23.042;2023-02-12T04:49:22;95827.13;;;0.17;99.59
20013;BME280;10167;42.852;23.042;2023-02-12T04:51:52;95832.34;;;0.17;98.66
20013;BME280;10167;42.852;23.042;2023-02-12T04:54:23;95830.41;;;0.19;98.33
20013;BME280;10167;42.852;23.042;2023-02-12T04:56:53;95832.34;;;0.17;99.36
20013;BME280;10167;42.852;23.042;2023-02-12T04:59:22;95838.38;;;0.17;99.59
20013;BME280;10167;42.852;23.042;2023-02-12T05:01:51;95845.50;;;0.15;98.63
20013;BME280;10167;42.852;23.042;2023-02-12T05:04:20;95838.56;;;0.24;97.32
20013;BME280;10167;42.852;23.042;2023-02-12T05:06:52;95843.72;;;0.33;98.92
20013;BME280;10167;42.852;23.042;2023-02-12T05:09:21;95832.31;;;0.34;100.00
20013;BME280;10167;42.852;23.042;2023-02-12T05:11:50;95846.41;;;0.42;99.10
20013;BME280;10167;42.852;23.042;2023-02-12T05:14:19;95850.69;;;0.51;99.89
20013;BME280;10167;42.852;23.042;2023-02-12T05:16:51;95853.75;;;0.46;100.00
20013;BME280;10167;42.852;23.042;2023-02-12T05:19:21;95837.91;;;0.40;100.00
20013;BME280;10167;42.852;23.042;2023-02-12T05:21:52;95840.88;;;0.45;100.00
20013;BME280;10167;42.852;23.042;2023-02-12T05:24:21;95839.25;;;0.44;100.00
20013;BME280;10167;42.852;23.042;2023-02-12T05:26:50;95838.91;;;0.47;100.00
20013;BME280;10167;42.852;23.042;2023-02-12T05:29:20;95843.25;;;0.38;100.00
20013;BME280;10167;42.852;23.042;2023-02-12T05:31:49;95853.00;;;0.54;100.00
20013;BME280;10167;42.852;23.042;2023-02-12T05:34:19;95845.84;;;0.56;100.00
20013;BME280;10167;42.852;23.042;2023-02-12T05:36:48;95840.22;;;0.43;100.00
20013;BME280;10167;42.852;23.042;2023-02-12T05:39:19;95836.84;;;0.50;100.00
20013;BME280;10167;42.852;23.042;2023-02-12T05:41:48;95834.91;;;0.34;100.00
20013;BME280;10167;42.852;23.042;2023-02-12T05:44:19;95844.38;;;0.35;100.00
20013;BME280;10167;42.852;23.042;2023-02-12T05:46:48;95840.88;;;0.27;100.00
20013;BME280;10167;42.852;23.042;2023-02-12T05:49:17;95845.56;;;0.23;100.00
20013;BME280;10167;42.852;23.042;2023-02-12T05:51:46;95850.13;;;0.21;100.00
20013;BME280;10167;42.852;23.042;2023-02-12T05:54:16;95843.88;;;0.14;100.00
20013;BME280;10167;42.852;23.042;2023-02-12T05:56:46;95846.63;;;0.13;100.00
20013;BME280;10167;42.852;23.042;2023-02-12T05:59:17;95852.16;;;0.10;100.00
20013;BME280;10167;42.852;23.042;2023-02-12T06:01:49;95850.78;;;0.06;100.00
20013;BME280;10167;42.852;23.042;2023-02-12T06:04:21;95845.72;;;0.04;100.00
20013;BME280;10167;42.852;23.042;2023-02-12T06:06:51;95845.06;;;0.02;100.00
20013;BME280;10167;42.852;23.042;2023-02-12T06:09:27;95849.16;;;0.05;100.00
20013;BME280;10167;42.852;23.042;2023-02-12T06:11:57;95849.44;;;0.02;100.00
20013;BME280;10167;42.852;23.042;2023-02-12T06:14:27;95858.75;;;0.04;100.00
20013;BME280;10167;42.852;23.042;2023-02-12T06:16:58;95851.09;;;0.03;100.00
20013;BME280;10167;42.852;23.042;2023-02-12T06:19:28;95858.19;;;0.10;100.00
20013;BME280;10167;42.852;23.042;2023-02-12T06:21:57;95857.84;;;0.13;100.00
20013;BME280;10167;42.852;23.042;2023-02-12T06:24:26;95858.53;;;0.15;100.00
20013;BME280;10167;42.852;23.042;2023-02-12T06:26:57;95862.78;;;-0.02;100.00
20013;BME280;10167;42.852;23.042;2023-02-12T06:29:26;95862.09;;;0.14;100.00
20013;BME280;10167;42.852;23.042;2023-02-12T06:31:55;95854.53;;;0.21;100.00
20013;BME280;10167;42.852;23.042;2023-02-12T06:34:25;95855.16;;;0.23;100.00
20013;BME280;10167;42.852;23.042;2023-02-12T06:36:54;95860.47;;;0.31;100.00
20013;BME280;10167;42.852;23.042;2023-02-12T06:39:23;95853.09;;;0.26;100.00
20013;BME280;10167;42.852;23.042;2023-02-12T06:41:52;95859.50;;;0.14;100.00
20013;BME280;10167;42.852;23.042;2023-02-12T06:44:23;95850.19;;;0.12;100.00
20013;BME280;10167;42.852;23.042;2023-02-12T06:46:52;95858.19;;;0.10;100.00
20013;BME280;10167;42.852;23.042;2023-02-12T06:49:22;95853.25;;;0.07;100.00
20013;BME280;10167;42.852;23.042;2023-02-12T06:51:52;95852.22;;;0.18;100.00
20013;BME280;10167;42.852;23.042;2023-02-12T06:54:21;95841.25;;;0.14;100.00
20013;BME280;10167;42.852;23.042;2023-02-12T06:56:51;95848.78;;;0.17;100.00
20013;BME280;10167;42.852;23.042;2023-02-12T06:59:20;95841.94;;;0.16;100.00
20013;BME280;10167;42.852;23.042;2023-02-12T07:01:51;95841.41;;;0.30;100.00
20013;BME280;10167;42.852;23.042;2023-02-12T07:04:21;95848.13;;;0.33;100.00
20013;BME280;10167;42.852;23.042;2023-02-12T07:06:50;95847.59;;;0.29;100.00
20013;BME280;10167;42.852;23.042;2023-02-12T07:09:19;95842.09;;;0.32;100.00
20013;BME280;10167;42.852;23.042;2023-02-12T07:11:48;95852.66;;;0.31;100.00
20013;BME280;10167;42.852;23.042;2023-02-12T07:14:18;95851.91;;;0.39;100.00
20013;BME280;10167;42.852;23.042;2023-02-12T07:16:47;95855.66;;;0.62;100.00
20013;BME280;10167;42.852;23.042;2023-02-12T07:19:18;95859.38;;;0.59;100.00
20013;BME280;10167;42.852;23.042;2023-02-12T07:21:47;95859.97;;;0.71;100.00
20013;BME280;10167;42.852;23.042;2023-02-12T07:24:17;95869.31;;;0.82;100.00
20013;BME280;10167;42.852;23.042;2023-02-12T07:26:46;95872.00;;;0.90;100.00
20013;BME280;10167;42.852;23.042;2023-02-12T07:29:15;95857.66;;;0.94;100.00
20013;BME280;10167;42.852;23.042;2023-02-12T07:31:44;95862.47;;;1.06;100.00
20013;BME280;10167;42.852;23.042;2023-02-12T07:34:13;95868.63;;;0.97;100.00
20013;BME280;10167;42.852;23.042;2023-02-12T07:36:44;95867.59;;;0.90;100.00
20013;BME280;10167;42.852;23.042;2023-02-12T07:39:13;95871.75;;;1.01;100.00
20013;BME280;10167;42.852;23.042;2023-02-12T07:41:42;95878.03;;;0.90;100.00
20013;BME280;10167;42.852;23.042;2023-02-12T07:44:12;95874.28;;;0.93;100.00
20013;BME280;10167;42.852;23.042;2023-02-12T07:46:43;95873.53;;;1.00;100.00
20013;BME280;10167;42.852;23.042;2023-02-12T07:49:17;95882.19;;;0.83;100.00
20013;BME280;10167;42.852;23.042;2023-02-12T07:51:48;95879.25;;;0.78;100.00
20013;BME280;10167;42.852;23.042;2023-02-12T07:54:18;95875.56;;;0.89;100.00
20013;BME280;10167;42.852;23.042;2023-02-12T07:56:47;95873.78;;;0.89;100.00
20013;BME280;10167;42.852;23.042;2023-02-12T07:59:18;95859.94;;;0.89;100.00
20013;BME280;10167;42.852;23.042;2023-02-12T08:01:50;95870.22;;;0.90;100.00
20013;BME280;10167;42.852;23.042;2023-02-12T08:04:21;95868.91;;;0.94;100.00
20013;BME280;10167;42.852;23.042;2023-02-12T08:06:54;95880.69;;;0.98;100.00
20013;BME280;10167;42.852;23.042;2023-02-12T08:09:25;95876.53;;;1.14;100.00
20013;BME280;10167;42.852;23.042;2023-02-12T08:11:55;95883.38;;;1.15;100.00
20013;BME280;10167;42.852;23.042;2023-02-12T08:14:25;95896.06;;;1.09;100.00
20013;BME280;10167;42.852;23.042;2023-02-12T08:16:55;95889.88;;;1.11;100.00
20013;BME280;10167;42.852;23.042;2023-02-12T08:19:24;95895.97;;;1.19;100.00
20013;BME280;10167;42.852;23.042;2023-02-12T08:21:55;95898.75;;;1.26;100.00
20013;BME280;10167;42.852;23.042;2023-02-12T08:24:25;95910.84;;;1.27;100.00
20013;BME280;10167;42.852;23.042;2023-02-12T08:26:54;95904.34;;;1.31;100.00
20013;BME280;10167;42.852;23.042;2023-02-12T08:29:25;95915.09;;;1.28;100.00
20013;BME280;10167;42.852;23.042;2023-02-12T08:31:57;95923.13;;;1.34;100.00
20013;BME280;10167;42.852;23.042;2023-02-12T08:34:28;95927.53;;;1.34;100.00
20013;BME280;10167;42.852;23.042;2023-02-12T08:37:00;95933.09;;;1.39;100.00
20013;BME280;10167;42.852;23.042;2023-02-12T08:39:29;95925.06;;;1.32;100.00
20013;BME280;10167;42.852;23.042;2023-02-12T08:42:00;95945.44;;;1.29;100.00
20013;BME280;10167;42.852;23.042;2023-02-12T08:44:29;95943.78;;;1.28;100.00
20013;BME280;10167;42.852;23.042;2023-02-12T08:46:58;95937.03;;;1.43;100.00
20013;BME280;10167;42.852;23.042;2023-02-12T08:49:28;95940.00;;;1.48;100.00
20013;BME280;10167;42.852;23.042;2023-02-12T08:51:59;95929.06;;;1.44;100.00
20013;BME280;10167;42.852;23.042;2023-02-12T08:54:30;95947.19;;;1.46;100.00
20013;BME280;10167;42.852;23.042;2023-02-12T08:57:01;95948.63;;;1.49;100.00
20013;BME280;10167;42.852;23.042;2023-02-12T08:59:31;95949.34;;;1.59;100.00
20013;BME280;10167;42.852;23.042;2023-02-12T09:02:00;95954.09;;;1.63;100.00
20013;BME280;10167;42.852;23.042;2023-02-12T09:04:31;95960.59;;;1.59;100.00
20013;BME280;10167;42.852;23.042;2023-02-12T09:07:04;95959.16;;;1.57;100.00
20013;BME280;10167;42.852;23.042;2023-02-12T09:09:37;95967.72;;;1.49;100.00
20013;BME280;10167;42.852;23.042;2023-02-12T09:12:06;95973.63;;;1.51;100.00
20013;BME280;10167;42.852;23.042;2023-02-12T09:14:35;95972.22;;;1.65;100.00
20013;BME280;10167;42.852;23.042;2023-02-12T09:17:05;95967.00;;;1.65;100.00
20013;BME280;10167;42.852;23.042;2023-02-12T09:19:34;95963.31;;;1.75;100.00
20013;BME280;10167;42.852;23.042;2023-02-12T09:22:06;95970.69;;;1.80;100.00
20013;BME280;10167;42.852;23.042;2023-02-12T09:24:36;95968.50;;;1.67;100.00
20013;BME280;10167;42.852;23.042;2023-02-12T09:27:07;95966.63;;;1.94;100.00
20013;BME280;10167;42.852;23.042;2023-02-12T09:29:36;95972.97;;;1.83;100.00
20013;BME280;10167;42.852;23.042;2023-02-12T09:32:05;95973.31;;;1.88;100.00
20013;BME280;10167;42.852;23.042;2023-02-12T09:34:36;95971.03;;;1.93;100.00
20013;BME280;10167;42.852;23.042;2023-02-12T09:37:06;95971.28;;;2.16;100.00
20013;BME280;10167;42.852;23.042;2023-02-12T09:39:35;95956.78;;;2.22;100.00
20013;BME280;10167;42.852;23.042;2023-02-12T09:42:23;95967.91;;;2.24;100.00
20013;BME280;10167;42.852;23.042;2023-02-12T09:45:01;95978.16;;;2.17;100.00
20013;BME280;10167;42.852;23.042;2023-02-12T09:47:40;95969.03;;;2.21;100.00
20013;BME280;10167;42.852;23.042;2023-02-12T09:50:30;95976.53;;;2.16;100.00
20013;BME280;10167;42.852;23.042;2023-02-12T09:53:03;95974.34;;;2.03;100.00
20013;BME280;10167;42.852;23.042;2023-02-12T09:55:33;95979.69;;;1.94;100.00
20013;BME280;10167;42.852;23.042;2023-02-12T09:58:10;95977.50;;;2.15;100.00
20013;BME280;10167;42.852;23.042;2023-02-12T10:00:41;95986.28;;;2.06;100.00
20013;BME280;10167;42.852;23.042;2023-02-12T10:03:12;95980.44;;;2.12;100.00
20013;BME280;10167;42.852;23.042;2023-02-12T10:05:47;95978.16;;;2.17;100.00
20013;BME280;10167;42.852;23.042;2023-02-12T10:08:38;95979.47;;;2.13;100.00
20013;BME280;10167;42.852;23.042;2023-02-12T10:11:39;95978.97;;;2.17;100.00
20013;BME280;10167;42.852;23.042;2023-02-12T10:14:24;95980.44;;;2.12;100.00
20013;BME280;10167;42.852;23.042;2023-02-12T10:17:05;95985.38;;;2.23;100.00
20013;BME280;10167;42.852;23.042;2023-02-12T10:19:54;95972.03;;;2.34;100.00
20013;BME280;10167;42.852;23.042;2023-02-12T10:22:36;95975.00;;;2.47;100.00
20013;BME280;10167;42.852;23.042;2023-02-12T10:25:29;95971.25;;;2.66;100.00
20013;BME280;10167;42.852;23.042;2023-02-12T10:28:10;95969.97;;;2.78;100.00
20013;BME280;10167;42.852;23.042;2023-02-12T10:30:44;95980.28;;;2.80;100.00
20013;BME280;10167;42.852;23.042;2023-02-12T10:33:19;95973.09;;;2.82;100.00
20013;BME280;10167;42.852;23.042;2023-02-12T10:36:01;95976.69;;;2.81;100.00
20013;BME280;10167;42.852;23.042;2023-02-12T10:38:36;95981.72;;;2.74;100.00
20013;BME280;10167;42.852;23.042;2023-02-12T10:41:13;95973.91;;;2.90;100.00
20013;BME280;10167;42.852;23.042;2023-02-12T10:43:43;95983.06;;;3.03;100.00
20013;BME280;10167;42.852;23.042;2023-02-12T10:46:14;95986.50;;;3.03;100.00
20013;BME280;10167;42.852;23.042;2023-02-12T10:48:45;95983.38;;;3.08;100.00
20013;BME280;10167;42.852;23.042;2023-02-12T10:51:33;95990.06;;;2.94;100.00
20013;BME280;10167;42.852;23.042;2023-02-12T10:54:30;95978.66;;;3.11;100.00
20013;BME280;10167;42.852;23.042;2023-02-12T10:57:07;95980.75;;;3.08;100.00
20013;BME280;10167;42.852;23.042;2023-02-12T10:59:39;95992.22;;;3.23;100.00
20013;BME280;10167;42.852;23.042;2023-02-12T11:02:23;95992.22;;;3.23;100.00
20013;BME280;10167;42.852;23.042;2023-02-12T11:04:57;95988.75;;;3.39;100.00
20013;BME280;10167;42.852;23.042;2023-02-12T11:07:27;95984.50;;;3.46;100.00
20013;BME280;10167;42.852;23.042;2023-02-12T11:09:56;95991.69;;;3.60;100.00
20013;BME280;10167;42.852;23.042;2023-02-12T11:12:31;95984.50;;;3.54;100.00
20013;BME280;10167;42.852;23.042;2023-02-12T11:15:09;95979.94;;;3.32;100.00
20013;BME280;10167;42.852;23.042;2023-02-12T11:17:42;95987.78;;;3.48;100.00
20013;BME280;10167;42.852;23.042;2023-02-12T11:20:22;95995.78;;;3.54;100.00
20013;BME280;10167;42.852;23.042;2023-02-12T11:22:54;96001.97;;;3.78;100.00
20013;BME280;10167;42.852;23.042;2023-02-12T11:25:26;96003.47;;;3.72;100.00
20013;BME280;10167;42.852;23.042;2023-02-12T11:28:04;95997.06;;;3.67;100.00
20013;BME280;10167;42.852;23.042;2023-02-12T11:30:35;95994.13;;;3.70;100.00
20013;BME280;10167;42.852;23.042;2023-02-12T11:33:15;95985.28;;;3.62;100.00
20013;BME280;10167;42.852;23.042;2023-02-12T11:35:52;95992.53;;;3.60;100.00
20013;BME280;10167;42.852;23.042;2023-02-12T11:38:29;95993.00;;;3.56;100.00
20013;BME280;10167;42.852;23.042;2023-02-12T11:41:03;95994.09;;;3.78;100.00
20013;BME280;10167;42.852;23.042;2023-02-12T11:43:38;95985.69;;;3.98;100.00
20013;BME280;10167;42.852;23.042;2023-02-12T11:46:07;95986.00;;;3.95;100.00
20013;BME280;10167;42.852;23.042;2023-02-12T11:48:39;95990.09;;;4.06;100.00
20013;BME280;10167;42.852;23.042;2023-02-12T11:51:18;95986.97;;;4.11;100.00
20013;BME280;10167;42.852;23.042;2023-02-12T11:53:50;95977.44;;;4.10;100.00
20013;BME280;10167;42.852;23.042;2023-02-12T11:56:21;95986.41;;;4.23;100.00
20013;BME280;10167;42.852;23.042;2023-02-12T11:58:52;95990.50;;;4.26;100.00
20013;BME280;10167;42.852;23.042;2023-02-12T12:01:26;95995.75;;;4.26;100.00
20013;BME280;10167;42.852;23.042;2023-02-12T12:04:02;95979.09;;;4.11;100.00
20013;BME280;10167;42.852;23.042;2023-02-12T12:06:35;95993.13;;;4.26;100.00
20013;BME280;10167;42.852;23.042;2023-02-12T12:09:10;95992.53;;;4.16;100.00
20013;BME280;10167;42.852;23.042;2023-02-12T12:11:49;95987.66;;;4.05;100.00
20013;BME280;10167;42.852;23.042;2023-02-12T12:14:28;95992.69;;;4.14;100.00
20013;BME280;10167;42.852;23.042;2023-02-12T12:17:03;96001.88;;;4.10;100.00
20013;BME280;10167;42.852;23.042;2023-02-12T12:19:58;95997.31;;;4.04;100.00
20013;BME280;10167;42.852;23.042;2023-02-12T12:22:40;96003.56;;;3.95;100.00
20013;BME280;10167;42.852;23.042;2023-02-12T12:25:20;96003.69;;;4.01;100.00
20013;BME280;10167;42.852;23.042;2023-02-12T12:28:04;96006.66;;;3.98;100.00
20013;BME280;10167;42.852;23.042;2023-02-12T12:31:00;95997.97;;;4.06;100.00
20013;BME280;10167;42.852;23.042;2023-02-12T12:33:39;96004.13;;;4.21;100.00
20013;BME280;10167;42.852;23.042;2023-02-12T12:39:17;96012.97;;;4.20;100.00
20013;BME280;10167;42.852;23.042;2023-02-12T12:42:07;96013.84;;;4.05;100.00
20013;BME280;10167;42.852;23.042;2023-02-12T12:44:53;96024.59;;;4.18;100.00
20013;BME280;10167;42.852;23.042;2023-02-12T12:47:41;96023.28;;;4.22;100.00
20013;BME280;10167;42.852;23.042;2023-02-12T12:50:24;96018.56;;;4.09;100.00
20013;BME280;10167;42.852;23.042;2023-02-12T12:53:14;96020.09;;;4.04;100.00
20013;BME280;10167;42.852;23.042;2023-02-12T12:56:14;96020.25;;;4.02;100.00
20013;BME280;10167;42.852;23.042;2023-02-12T12:58:57;96019.41;;;4.10;100.00
20013;BME280;10167;42.852;23.042;2023-02-12T13:01:55;96025.69;;;4.31;100.00
20013;BME280;10167;42.852;23.042;2023-02-12T13:04:59;96011.09;;;4.37;100.00
20013;BME280;10167;42.852;23.042;2023-02-12T13:07:45;96024.22;;;4.37;100.00
20013;BME280;10167;42.852;23.042;2023-02-12T13:10:30;96020.91;;;4.74;100.00
20013;BME280;10167;42.852;23.042;2023-02-12T13:13:08;96023.50;;;4.82;100.00
20013;BME280;10167;42.852;23.042;2023-02-12T13:15:47;96033.25;;;4.96;100.00
20013;BME280;10167;42.852;23.042;2023-02-12T13:18:30;96034.03;;;4.97;100.00
20013;BME280;10167;42.852;23.042;2023-02-12T13:21:11;96041.75;;;5.21;100.00
20013;BME280;10167;42.852;23.042;2023-02-12T13:23:46;96047.19;;;5.20;100.00
20013;BME280;10167;42.852;23.042;2023-02-12T13:26:23;96041.06;;;5.27;100.00